地図

経路データ

SID SEASON NUMBER BASIN SUBBASIN NAME ISO_TIME NATURE LAT LON WMO_WIND WMO_PRES WMO_AGENCY TRACK_TYPE DIST2LAND LANDFALL IFLAG USA_AGENCY USA_ATCF_ID USA_LAT USA_LON USA_RECORD USA_STATUS USA_WIND USA_PRES USA_SSHS USA_R34_NE USA_R34_SE USA_R34_SW USA_R34_NW USA_R50_NE USA_R50_SE USA_R50_SW USA_R50_NW USA_R64_NE USA_R64_SE USA_R64_SW USA_R64_NW USA_POCI USA_ROCI USA_RMW USA_EYE TOKYO_LAT TOKYO_LON TOKYO_GRADE TOKYO_WIND TOKYO_PRES TOKYO_R50_DIR TOKYO_R50_LONG TOKYO_R50_SHORT TOKYO_R30_DIR TOKYO_R30_LONG TOKYO_R30_SHORT TOKYO_LAND CMA_LAT CMA_LON CMA_CAT CMA_WIND CMA_PRES HKO_LAT HKO_LON HKO_CAT HKO_WIND HKO_PRES NEWDELHI_LAT NEWDELHI_LON NEWDELHI_GRADE NEWDELHI_WIND NEWDELHI_PRES NEWDELHI_CI NEWDELHI_DP NEWDELHI_POCI REUNION_LAT REUNION_LON REUNION_TYPE REUNION_WIND REUNION_PRES REUNION_TNUM REUNION_CI REUNION_RMW REUNION_R34_NE REUNION_R34_SE REUNION_R34_SW REUNION_R34_NW REUNION_R50_NE REUNION_R50_SE REUNION_R50_SW REUNION_R50_NW REUNION_R64_NE REUNION_R64_SE REUNION_R64_SW REUNION_R64_NW BOM_LAT BOM_LON BOM_TYPE BOM_WIND BOM_PRES BOM_TNUM BOM_CI BOM_RMW BOM_R34_NE BOM_R34_SE BOM_R34_SW BOM_R34_NW BOM_R50_NE BOM_R50_SE BOM_R50_SW BOM_R50_NW BOM_R64_NE BOM_R64_SE BOM_R64_SW BOM_R64_NW BOM_ROCI BOM_POCI BOM_EYE BOM_POS_METHOD BOM_PRES_METHOD NADI_LAT NADI_LON NADI_CAT NADI_WIND NADI_PRES WELLINGTON_LAT WELLINGTON_LON WELLINGTON_WIND WELLINGTON_PRES DS824_LAT DS824_LON DS824_STAGE DS824_WIND DS824_PRES TD9636_LAT TD9636_LON TD9636_STAGE TD9636_WIND TD9636_PRES TD9635_LAT TD9635_LON TD9635_WIND TD9635_PRES TD9635_ROCI NEUMANN_LAT NEUMANN_LON NEUMANN_CLASS NEUMANN_WIND NEUMANN_PRES MLC_LAT MLC_LON MLC_CLASS MLC_WIND MLC_PRES USA_GUST BOM_GUST BOM_GUST_PER REUNION_GUST REUNION_GUST_PER USA_SEAHGT USA_SEARAD_NE USA_SEARAD_SE USA_SEARAD_SW USA_SEARAD_NW STORM_SPEED STORM_DIR
1881111S05089 1881 11 SI MM NOT_NAMED 1881-04-21 06:00:00 NR -4.60000 89.4000 main 1076 1076 _____O________ -1 -4.60000 89.4000 99 9.90000 5 203
1881111S05089 1881 11 SI MM NOT_NAMED 1881-04-21 09:00:00 NR -4.84153 89.2941 main 1100 1100 _____P________ -1 -4.84153 89.2941 99 5 203
1881111S05089 1881 11 SI MM NOT_NAMED 1881-04-21 12:00:00 NR -5.08622 89.1910 main 1132 1132 _____P________ -1 -5.08622 89.1910 99 5 202
1881111S05089 1881 11 SI MM NOT_NAMED 1881-04-21 15:00:00 NR -5.33727 89.0939 main 1151 1151 _____P________ -1 -5.33727 89.0939 99 5 200
1881111S05089 1881 11 SI MM NOT_NAMED 1881-04-21 18:00:00 NR -5.59788 89.0055 main 1174 1174 _____P________ -1 -5.59788 89.0055 99 6 197
1881111S05089 1881 11 SI MM NOT_NAMED 1881-04-21 21:00:00 NR -5.87124 88.9290 main 1199 1199 _____P________ -1 -5.87124 88.9290 99 6 194
1881111S05089 1881 11 SI MM NOT_NAMED 1881-04-22 00:00:00 NR -6.16056 88.8672 main 1214 1214 _____P________ -1 -6.16056 88.8672 99 6 190
1881111S05089 1881 11 SI MM NOT_NAMED 1881-04-22 03:00:00 NR -6.46908 88.8232 main 1239 1239 _____P________ -1 -6.46908 88.8232 99 6 186
1881111S05089 1881 11 SI MM NOT_NAMED 1881-04-22 06:00:00 NR -6.80000 88.8000 main 1255 1255 _____O________ -1 -6.80000 88.8000 99 9.90000 7 0
1881111S05089 1881 11 SI MM NOT_NAMED 1881-04-22 09:00:00 NR -7.15454 88.7997 main 1278 1278 _____P________ -1 -7.15454 88.7997 99 7 0
1881111S05089 1881 11 SI MM NOT_NAMED 1881-04-22 12:00:00 NR -7.52575 88.8212 main 1295 1295 _____P________ -1 -7.52575 88.8212 99 8 176
1881111S05089 1881 11 SI MM NOT_NAMED 1881-04-22 15:00:00 NR -7.90467 88.8626 main 1308 1308 _____P________ -1 -7.90467 88.8626 99 8 172
1881111S05089 1881 11 SI MM NOT_NAMED 1881-04-22 18:00:00 NR -8.28230 88.9220 main 1332 1329 _____P________ -1 -8.28230 88.9220 99 8 170
1881111S05089 1881 11 SI MM NOT_NAMED 1881-04-22 21:00:00 NR -8.64964 88.9974 main 1341 1341 _____P________ -1 -8.64964 88.9974 99 7 167
1881111S05089 1881 11 SI MM NOT_NAMED 1881-04-23 00:00:00 NR -8.99771 89.0869 main 1359 1359 _____P________ -1 -8.99771 89.0869 99 7 164
1881111S05089 1881 11 SI MM NOT_NAMED 1881-04-23 03:00:00 NR -9.31749 89.1884 main 1370 1370 _____P________ -1 -9.31749 89.1884 99 6 161
1881111S05089 1881 11 SI MM NOT_NAMED 1881-04-23 06:00:00 NR -9.60000 89.3000 main 1382 1381 _____O________ -1 -9.60000 89.3000 99 9.90000 6 156
1881111S05089 1881 11 SI MM NOT_NAMED 1881-04-23 09:00:00 NR -9.83872 89.4198 main 1388 1387 _____P________ -1 -9.83872 89.4198 99 5 151
1881111S05089 1881 11 SI MM NOT_NAMED 1881-04-23 12:00:00 NR -10.0370 89.5467 main 1395 1386 _____P________ -1 -10.0370 89.5467 99 4 145
1881111S05089 1881 11 SI MM NOT_NAMED 1881-04-23 15:00:00 NR -10.2005 89.6797 main 1393 1393 _____P________ -1 -10.2005 89.6797 99 4 138
1881111S05089 1881 11 SI MM NOT_NAMED 1881-04-23 18:00:00 NR -10.3352 89.8177 main 1393 1385 _____P________ -1 -10.3352 89.8177 99 4 132
1881111S05089 1881 11 SI MM NOT_NAMED 1881-04-23 21:00:00 NR -10.4467 89.9597 main 1385 1385 _____P________ -1 -10.4467 89.9597 99 4 126
1881111S05089 1881 11 SI WA NOT_NAMED 1881-04-24 00:00:00 NR -10.5408 90.1047 main 1385 1385 _____P________ -1 -10.5408 90.1047 99 3 122
1881111S05089 1881 11 SI WA NOT_NAMED 1881-04-24 03:00:00 NR -10.6233 90.2518 main 1377 1377 _____P________ -1 -10.6233 90.2518 99 3 119
1881111S05089 1881 11 SI WA NOT_NAMED 1881-04-24 06:00:00 NR -10.7000 90.4000 main 1378 _____O________ -1 -10.7000 90.4000 99 9.90000 3 117

IBTrACS Databaseについて

本データベースは、米国NOAAが公開する1842年以降の世界の熱帯低気圧のベストトラックデータアーカイブInternational Best Track Archive for Climate Stewardship (IBTrACS)を、ウェブで閲覧しやすい形式に変換したものです。

最終更新日:2021-11-26